Time;durP1;ratioP1;P1;durP2;ratioP2;P2;SDS_P1;SDS_P2;PMS_P1;PMS_P2;Temp;Humidity;BMP_temperature;BMP_pressure;BME280_temperature;BME280_humidity;BME280_pressure;Samples;Min_cycle;Max_cycle;Signal;HPM_P1;HPM_P2
2023/12/11 00:00:15;;;;;;;0.40;0.40;;;;;;;8.89;100.00;97133.06;5093662;28;20646;-74
2023/12/11 00:02:42;;;;;;;1.20;0.50;;;;;;;8.79;100.00;97124.06;5093594;28;20257;-74
2023/12/11 00:05:08;;;;;;;0.87;0.47;;;;;;;8.93;100.00;97126.25;5093671;28;20295;-74
2023/12/11 00:07:35;;;;;;;1.53;0.60;;;;;;;8.93;100.00;97115.66;5093615;28;20210;-74
2023/12/11 00:10:01;;;;;;;0.90;0.50;;;;;;;8.98;100.00;97114.94;5093519;28;20633;-74
2023/12/11 00:12:28;;;;;;;0.60;0.33;;;;;;;9.03;100.00;97126.47;5093124;28;20229;-74
2023/12/11 00:14:54;;;;;;;1.13;0.50;;;;;;;9.03;100.00;97121.19;5093681;28;20235;-74
2023/12/11 00:17:21;;;;;;;0.77;0.53;;;;;;;8.98;100.00;97118.41;5093389;28;20639;-74
2023/12/11 00:19:47;;;;;;;1.37;0.50;;;;;;;9.11;100.00;97112.06;5093773;28;20239;-74
2023/12/11 00:22:14;;;;;;;1.13;0.53;;;;;;;9.16;100.00;97110.34;5093587;28;20207;-74
2023/12/11 00:24:40;;;;;;;2.00;0.60;;;;;;;9.02;100.00;97098.38;5093526;28;20213;-74
2023/12/11 00:27:06;;;;;;;2.77;0.70;;;;;;;8.94;100.00;97108.50;5093544;28;20290;-75
2023/12/11 00:29:33;;;;;;;2.00;0.70;;;;;;;9.01;100.00;97099.38;5093107;28;20584;-75
2023/12/11 00:31:59;;;;;;;1.00;0.67;;;;;;;9.00;100.00;97104.94;5093434;28;20299;-75
2023/12/11 00:34:26;;;;;;;0.83;0.50;;;;;;;9.02;100.00;97124.88;5093623;28;20619;-74
2023/12/11 00:36:52;;;;;;;0.73;0.50;;;;;;;8.98;100.00;97112.31;5093492;28;20295;-75
2023/12/11 00:39:18;;;;;;;0.90;0.53;;;;;;;8.96;100.00;97128.44;5093208;28;20314;-75
2023/12/11 00:41:45;;;;;;;1.30;0.50;;;;;;;9.02;100.00;97118.75;5093414;28;20716;-75
2023/12/11 00:44:11;;;;;;;1.93;0.73;;;;;;;9.03;100.00;97123.84;5093227;28;20290;-75
2023/12/11 00:46:38;;;;;;;1.60;0.50;;;;;;;9.05;100.00;97118.31;5093074;28;20211;-74
2023/12/11 00:49:04;;;;;;;1.10;0.40;;;;;;;9.03;100.00;97130.97;5092976;28;20311;-75
2023/12/11 00:51:31;;;;;;;0.60;0.40;;;;;;;9.11;100.00;97143.88;5093060;28;20757;-75
2023/12/11 00:53:57;;;;;;;0.60;0.50;;;;;;;9.08;100.00;97158.41;5094903;28;20736;-75
2023/12/11 00:56:23;;;;;;;1.63;0.60;;;;;;;9.15;100.00;97155.63;5097302;28;20291;-74
2023/12/11 00:58:50;;;;;;;0.40;0.40;;;;;;;9.16;100.00;97154.59;5096858;28;20786;-75
2023/12/11 01:01:16;;;;;;;0.40;0.40;;;;;;;9.17;100.00;97154.38;5097293;28;20285;-75
2023/12/11 01:03:43;;;;;;;0.50;0.40;;;;;;;9.28;100.00;97142.16;5096989;28;20291;-74
2023/12/11 01:06:09;;;;;;;0.93;0.50;;;;;;;9.27;100.00;97151.94;5097132;28;20287;-75
2023/12/11 01:08:38;;;;;;;1.73;0.70;;;;;;;9.33;100.00;97160.81;5096947;28;20618;-75
2023/12/11 01:11:05;;;;;;;2.10;0.60;;;;;;;9.31;100.00;97154.91;5097178;28;20200;-75
2023/12/11 01:13:31;;;;;;;1.03;0.40;;;;;;;9.27;100.00;97164.38;5096662;28;20706;-75
2023/12/11 01:15:57;;;;;;;1.07;0.47;;;;;;;9.25;100.00;97155.84;5097026;28;20291;-75
2023/12/11 01:18:25;;;;;;;1.50;0.50;;;;;;;9.19;100.00;97152.28;5096936;28;20307;-75
2023/12/11 01:20:52;;;;;;;0.70;0.57;;;;;;;9.26;100.00;97146.84;5096545;28;20270;-75
2023/12/11 01:23:19;;;;;;;1.13;0.43;;;;;;;9.19;100.00;97149.63;5096616;28;20694;-75
2023/12/11 01:25:45;;;;;;;0.83;0.50;;;;;;;9.18;100.00;97150.69;5096884;28;20290;-75
2023/12/11 01:28:12;;;;;;;0.47;0.47;;;;;;;9.13;100.00;97137.31;5096610;28;20207;-75
2023/12/11 01:30:38;;;;;;;0.40;0.40;;;;;;;9.09;100.00;97130.06;5096299;28;20707;-75
2023/12/11 01:33:04;;;;;;;1.00;0.47;;;;;;;9.07;100.00;97129.47;5096570;28;20295;-75
2023/12/11 01:35:33;;;;;;;0.30;0.30;;;;;;;9.05;100.00;97135.00;5096550;28;20290;-75
2023/12/11 01:38:00;;;;;;;0.40;0.30;;;;;;;9.04;100.00;97141.34;5096056;28;20249;-75
2023/12/11 01:40:27;;;;;;;0.50;0.30;;;;;;;9.01;100.00;97154.25;5096381;28;20307;-75
2023/12/11 01:42:53;;;;;;;0.30;0.30;;;;;;;9.02;100.00;97161.16;5096464;28;20287;-75
2023/12/11 01:45:20;;;;;;;0.37;0.37;;;;;;;9.07;100.00;97164.75;5096068;28;20295;-75
2023/12/11 01:47:46;;;;;;;1.70;0.60;;;;;;;9.14;100.00;97157.47;5096261;28;20298;-74
2023/12/11 01:50:13;;;;;;;1.33;0.50;;;;;;;9.12;100.00;97166.69;5096013;28;20302;-74
2023/12/11 01:52:39;;;;;;;1.83;0.50;;;;;;;9.16;100.00;97157.25;5096254;28;20567;-75
2023/12/11 01:55:07;;;;;;;2.23;0.40;;;;;;;9.15;100.00;97164.38;5096226;28;20286;-75
2023/12/11 01:57:33;;;;;;;2.20;0.50;;;;;;;9.08;100.00;97153.09;5096258;28;20283;-75
2023/12/11 02:00:02;;;;;;;0.80;0.50;;;;;;;9.11;100.00;97149.19;5095904;28;20239;-75
2023/12/11 02:02:31;;;;;;;0.43;0.43;;;;;;;9.01;100.00;97148.97;5095771;28;20714;-75
2023/12/11 02:04:58;;;;;;;1.63;0.50;;;;;;;9.01;100.00;97146.31;5095640;28;20203;-75
2023/12/11 02:07:24;;;;;;;0.30;0.30;;;;;;;9.02;100.00;97161.16;5096073;28;20608;-75
2023/12/11 02:09:51;;;;;;;0.40;0.30;;;;;;;8.98;100.00;97160.00;5095723;28;20303;-75
2023/12/11 02:12:17;;;;;;;0.43;0.30;;;;;;;8.99;100.00;97157.13;5095426;28;20239;-75
2023/12/11 02:14:44;;;;;;;1.80;0.60;;;;;;;9.03;100.00;97153.00;5095756;28;20302;-75
2023/12/11 02:17:10;;;;;;;0.97;0.30;;;;;;;9.02;100.00;97154.03;5095689;28;20291;-75
2023/12/11 02:19:37;;;;;;;1.30;0.40;;;;;;;9.05;100.00;97150.13;5095578;28;20227;-75
2023/12/11 02:22:03;;;;;;;0.67;0.40;;;;;;;9.03;100.00;97152.19;5095586;28;20257;-75
2023/12/11 02:24:36;;;;;;;2.30;0.40;;;;;;;8.95;100.00;97148.03;5095286;28;20204;-75
2023/12/11 02:27:03;;;;;;;0.30;0.30;;;;;;;8.97;100.00;97145.16;5095588;28;20604;-75
2023/12/11 02:29:30;;;;;;;0.60;0.40;;;;;;;8.93;100.00;97154.59;5077310;28;20319;-75
2023/12/11 02:31:56;;;;;;;0.40;0.40;;;;;;;9.00;100.00;97150.00;5095450;28;20218;-75
2023/12/11 02:34:23;;;;;;;0.73;0.50;;;;;;;8.93;100.00;97149.31;5095480;28;20303;-75
2023/12/11 02:36:49;;;;;;;0.80;0.40;;;;;;;8.93;100.00;97141.34;5095377;28;20295;-75
2023/12/11 02:39:15;;;;;;;0.70;0.50;;;;;;;8.90;100.00;97144.44;5095096;28;20310;-75
2023/12/11 02:41:42;;;;;;;1.20;0.40;;;;;;;8.88;100.00;97149.97;5095707;28;20286;-75
2023/12/11 02:44:08;;;;;;;0.57;0.40;;;;;;;8.87;100.00;97143.06;5095213;28;20231;-75
2023/12/11 02:46:35;;;;;;;0.70;0.43;;;;;;;8.83;100.00;97146.41;5094818;28;20299;-75
2023/12/11 02:49:01;;;;;;;1.17;0.50;;;;;;;8.86;100.00;97143.28;5094553;28;20314;-75
2023/12/11 02:51:28;;;;;;;0.60;0.40;;;;;;;8.80;100.00;97144.22;5095012;28;20295;-75
2023/12/11 02:53:54;;;;;;;1.80;0.47;;;;;;;8.82;100.00;97148.25;5094904;28;20301;-75
2023/12/11 02:56:21;;;;;;;0.33;0.33;;;;;;;8.89;100.00;97154.25;5094957;28;20303;-75
2023/12/11 02:58:47;;;;;;;0.97;0.40;;;;;;;8.87;100.00;97145.72;5094743;28;20225;-75
2023/12/11 03:01:15;;;;;;;0.37;0.37;;;;;;;8.88;100.00;97149.19;5094838;28;20291;-75
2023/12/11 03:03:42;;;;;;;0.43;0.43;;;;;;;8.84;100.00;97159.44;5094407;28;20561;-75
2023/12/11 03:06:18;;;;;;;0.73;0.50;;;;;;;8.84;100.00;97148.84;5094304;28;20291;-75
2023/12/11 03:08:44;;;;;;;0.53;0.50;;;;;;;8.89;100.00;97145.50;5094285;28;20653;-75
2023/12/11 03:11:11;;;;;;;1.10;0.40;;;;;;;8.82;100.00;97142.94;5094614;28;20204;-75
2023/12/11 03:13:37;;;;;;;2.00;0.50;;;;;;;8.75;100.00;97136.97;5094513;28;20239;-75
2023/12/11 03:16:04;;;;;;;1.80;0.60;;;;;;;8.75;100.00;97138.81;5093421;28;20210;-75
2023/12/11 03:18:30;;;;;;;0.30;0.30;;;;;;;8.71;100.00;97146.41;5094503;28;20290;-75
2023/12/11 03:20:57;;;;;;;1.33;0.43;;;;;;;8.67;100.00;97144.44;5094106;28;20262;-75
2023/12/11 03:23:24;;;;;;;0.50;0.50;;;;;;;8.71;100.00;97145.59;5094334;28;20299;-75
2023/12/11 03:25:50;;;;;;;0.40;0.30;;;;;;;8.64;100.00;97142.25;5094281;28;20239;-75
2023/12/11 03:28:17;;;;;;;0.30;0.30;;;;;;;8.61;100.00;97138.22;5094017;28;20747;-75
2023/12/11 03:30:44;;;;;;;0.73;0.40;;;;;;;8.64;100.00;97126.38;5093871;28;20306;-75
2023/12/11 03:33:10;;;;;;;0.50;0.30;;;;;;;8.65;100.00;97125.31;5094230;28;20302;-75
2023/12/11 03:35:36;;;;;;;0.43;0.40;;;;;;;8.64;100.00;97121.06;5094101;28;20264;-75
2023/12/11 03:38:03;;;;;;;1.13;0.40;;;;;;;8.59;100.00;97123.56;5094086;28;20298;-75
2023/12/11 03:40:29;;;;;;;0.53;0.40;;;;;;;8.60;100.00;97125.19;5093978;28;20318;-75
2023/12/11 03:42:56;;;;;;;0.50;0.40;;;;;;;8.63;100.00;97125.53;5093962;28;20290;-75
2023/12/11 03:45:22;;;;;;;0.97;0.40;;;;;;;8.64;100.00;97129.81;5093664;28;20662;-75
2023/12/11 03:47:49;;;;;;;1.07;0.40;;;;;;;8.71;100.00;97125.22;5093536;28;20251;-75
2023/12/11 03:50:15;;;;;;;2.83;0.60;;;;;;;8.61;100.00;97124.97;5093799;28;20251;-75
2023/12/11 03:52:41;;;;;;;1.13;0.50;;;;;;;8.69;100.00;97116.66;5093599;28;20294;-75
2023/12/11 03:55:08;;;;;;;0.57;0.33;;;;;;;8.71;100.00;97114.63;5093978;28;20299;-75
2023/12/11 03:57:35;;;;;;;1.60;0.30;;;;;;;8.71;100.00;97100.56;5094090;28;20210;-75
2023/12/11 04:00:01;;;;;;;0.50;0.50;;;;;;;8.74;100.00;97102.75;5093355;28;20318;-75
2023/12/11 04:02:28;;;;;;;2.23;0.57;;;;;;;8.72;100.00;97092.38;5093727;28;20299;-75
2023/12/11 04:04:54;;;;;;;1.33;0.50;;;;;;;8.80;100.00;97094.69;5093631;28;20298;-75
2023/12/11 04:07:20;;;;;;;0.50;0.50;;;;;;;8.82;100.00;97083.88;5093467;28;20208;-75
2023/12/11 04:09:47;;;;;;;0.30;0.30;;;;;;;8.85;100.00;97070.94;5093400;28;20306;-75
2023/12/11 04:12:15;;;;;;;0.80;0.40;;;;;;;8.78;100.00;97069.47;5093517;28;20306;-75
2023/12/11 04:14:41;;;;;;;0.37;0.30;;;;;;;8.82;100.00;97065.31;5093379;28;20249;-75
2023/12/11 04:17:07;;;;;;;1.40;0.20;;;;;;;8.74;100.00;97053.19;5093109;28;20294;-75
2023/12/11 04:19:34;;;;;;;0.30;0.30;;;;;;;8.58;100.00;97058.38;5093366;28;20292;-75
2023/12/11 04:22:00;;;;;;;0.63;0.37;;;;;;;8.67;100.00;97067.59;5093181;28;20295;-75
2023/12/11 04:24:27;;;;;;;0.80;0.30;;;;;;;8.71;100.00;97074.06;5093576;28;20230;-75
2023/12/11 04:26:53;;;;;;;0.40;0.40;;;;;;;8.85;100.00;97070.13;5094065;28;20662;-75
2023/12/11 04:29:20;;;;;;;0.30;0.30;;;;;;;8.91;100.00;97082.47;5100134;28;20318;-75
2023/12/11 04:31:46;;;;;;;0.53;0.30;;;;;;;8.93;100.00;97086.50;5099948;28;20661;-75
2023/12/11 04:34:13;;;;;;;0.20;0.20;;;;;;;8.99;100.00;97088.22;5100053;28;20298;-74
2023/12/11 04:36:42;;;;;;;0.27;0.27;;;;;;;9.10;100.00;97092.69;5099744;28;20203;-74
2023/12/11 04:39:09;;;;;;;0.30;0.30;;;;;;;9.06;100.00;97093.41;5099977;28;20220;-74
2023/12/11 04:41:35;;;;;;;0.37;0.37;;;;;;;9.11;100.00;97088.19;5101082;28;20206;-74
2023/12/11 04:44:02;;;;;;;0.27;0.27;;;;;;;9.12;100.00;97100.41;5099724;28;20674;-74
2023/12/11 04:46:28;;;;;;;0.30;0.30;;;;;;;9.18;100.00;97099.47;5100277;28;20226;-74
2023/12/11 04:48:54;;;;;;;0.77;0.40;;;;;;;9.14;100.00;97101.78;5099851;28;20318;-74
2023/12/11 04:51:21;;;;;;;0.57;0.30;;;;;;;9.19;100.00;97096.59;5099917;28;20250;-74
2023/12/11 04:53:47;;;;;;;0.40;0.40;;;;;;;9.12;100.00;97089.81;5099405;28;20761;-74
2023/12/11 04:56:14;;;;;;;0.50;0.30;;;;;;;9.17;100.00;97074.81;5099455;28;20207;-74
2023/12/11 04:58:40;;;;;;;0.30;0.30;;;;;;;9.16;100.00;97078.53;5099640;28;20246;-74
2023/12/11 05:01:06;;;;;;;0.83;0.47;;;;;;;9.15;100.00;97066.28;5099332;28;20235;-74
2023/12/11 05:03:33;;;;;;;0.50;0.40;;;;;;;9.10;100.00;97084.72;5099150;28;20227;-74
2023/12/11 05:05:59;;;;;;;0.37;0.30;;;;;;;9.11;100.00;97081.06;5099241;28;20694;-74
2023/12/11 05:08:26;;;;;;;0.20;0.20;;;;;;;9.19;100.00;97074.59;5099547;28;20204;-74
2023/12/11 05:10:52;;;;;;;1.80;0.30;;;;;;;9.22;100.00;97079.41;5099219;28;20227;-74
2023/12/11 05:13:19;;;;;;;0.93;0.40;;;;;;;9.23;100.00;97081.03;5099094;28;20235;-74
2023/12/11 05:15:45;;;;;;;1.50;0.57;;;;;;;9.17;100.00;97068.69;5099516;28;20295;-74
2023/12/11 05:18:11;;;;;;;0.50;0.30;;;;;;;9.21;100.00;97075.97;5099335;28;20200;-74
2023/12/11 05:20:38;;;;;;;0.50;0.40;;;;;;;9.21;100.00;97081.28;5099138;28;20315;-74
2023/12/11 05:23:04;;;;;;;0.30;0.30;;;;;;;9.23;100.00;97089.78;5099375;28;20286;-74
2023/12/11 05:25:31;;;;;;;1.73;0.40;;;;;;;9.27;100.00;97095.41;5098605;28;20298;-74
2023/12/11 05:27:57;;;;;;;0.40;0.40;;;;;;;9.18;100.00;97086.22;5099913;28;20295;-74
2023/12/11 05:30:24;;;;;;;1.13;0.30;;;;;;;9.08;100.00;97075.41;5099246;28;20306;-74
2023/12/11 05:32:50;;;;;;;1.03;0.40;;;;;;;9.13;100.00;97072.84;5098888;28;20662;-74
2023/12/11 05:35:16;;;;;;;0.93;0.40;;;;;;;9.15;100.00;97063.63;5099187;28;20599;-74
2023/12/11 05:37:43;;;;;;;1.70;0.40;;;;;;;9.13;100.00;97051.66;5099371;28;20200;-74
2023/12/11 05:40:10;;;;;;;1.07;0.50;;;;;;;9.11;100.00;97056.38;5095805;28;20326;-74
2023/12/11 05:42:36;;;;;;;0.30;0.30;;;;;;;8.99;100.00;97040.50;5096216;28;20238;-74
2023/12/11 05:45:03;;;;;;;0.50;0.50;;;;;;;8.93;100.00;97028.19;5096062;28;20287;-74
2023/12/11 05:47:29;;;;;;;0.93;0.50;;;;;;;8.94;100.00;97018.38;5095370;28;20593;-74
2023/12/11 05:49:56;;;;;;;0.40;0.40;;;;;;;8.85;100.00;97006.53;5095817;28;20306;-74
2023/12/11 05:52:22;;;;;;;0.53;0.50;;;;;;;8.86;100.00;97002.81;5095795;28;20295;-74
2023/12/11 05:54:48;;;;;;;2.07;0.43;;;;;;;8.80;100.00;97020.50;5095577;28;20757;-74
2023/12/11 05:57:15;;;;;;;0.53;0.40;;;;;;;8.87;100.00;97058.25;5095195;28;20583;-74
2023/12/11 05:59:41;;;;;;;1.47;0.47;;;;;;;9.08;100.00;97060.31;5095677;28;20330;-74
2023/12/11 06:02:08;;;;;;;0.70;0.40;;;;;;;9.09;100.00;97066.44;5095501;28;20742;-74
2023/12/11 06:04:36;;;;;;;0.50;0.50;;;;;;;9.20;100.00;97058.47;5095417;28;20303;-74
2023/12/11 06:07:03;;;;;;;0.40;0.40;;;;;;;9.16;100.00;97069.75;5096724;28;20242;-75
2023/12/11 06:09:29;;;;;;;1.43;0.37;;;;;;;9.17;100.00;97064.22;5095170;28;20310;-75
2023/12/11 06:11:56;;;;;;;1.50;0.57;;;;;;;9.04;100.00;97048.56;5095224;28;20741;-75
2023/12/11 06:14:23;;;;;;;0.53;0.40;;;;;;;9.28;100.00;97039.50;5095500;28;20242;-74
2023/12/11 06:16:49;;;;;;;0.60;0.60;;;;;;;9.15;100.00;97050.38;5095182;28;20204;-74
2023/12/11 06:19:16;;;;;;;1.50;0.73;;;;;;;9.15;100.00;97050.38;5094772;28;20258;-74
2023/12/11 06:21:43;;;;;;;0.83;0.60;;;;;;;9.21;100.00;97040.69;5095430;28;20214;-74
2023/12/11 06:24:09;;;;;;;0.40;0.40;;;;;;;9.20;100.00;97042.53;5094683;28;20246;-74
2023/12/11 06:26:36;;;;;;;1.67;0.60;;;;;;;9.16;100.00;97061.78;5094767;28;20295;-74
2023/12/11 06:29:03;;;;;;;2.70;1.13;;;;;;;9.20;100.00;97060.28;5094947;28;20224;-74
2023/12/11 06:31:31;;;;;;;1.63;0.50;;;;;;;9.27;100.00;97082.16;5095155;28;20630;-74
2023/12/11 06:33:57;;;;;;;0.40;0.40;;;;;;;9.34;100.00;97065.09;5094933;28;20296;-74
2023/12/11 06:36:25;;;;;;;0.70;0.53;;;;;;;9.32;100.00;97066.38;5094462;28;20239;-74
2023/12/11 06:38:51;;;;;;;1.03;0.57;;;;;;;9.33;100.00;97062.69;5094466;28;20210;-75
2023/12/11 06:41:18;;;;;;;1.03;0.50;;;;;;;9.31;100.00;97049.66;5094444;28;20313;-74
2023/12/11 06:43:50;;;;;;;0.40;0.40;;;;;;;9.27;100.00;97043.19;5094491;28;20246;-74
2023/12/11 06:46:16;;;;;;;1.20;0.50;;;;;;;9.25;100.00;97039.19;5094455;28;20299;-74
2023/12/11 06:48:43;;;;;;;1.20;0.87;;;;;;;9.23;100.00;97033.31;5094231;28;20303;-75
2023/12/11 06:51:09;;;;;;;3.10;0.47;;;;;;;9.12;100.00;97021.69;5093452;28;20228;-75
2023/12/11 06:53:36;;;;;;;0.63;0.63;;;;;;;9.24;100.00;97037.56;5095805;28;20295;-75
2023/12/11 06:56:03;;;;;;;0.73;0.50;;;;;;;9.27;100.00;97047.69;5098534;28;20295;-74
2023/12/11 06:58:30;;;;;;;1.07;0.60;;;;;;;9.20;100.00;97049.69;5094599;28;20231;-74
2023/12/11 07:00:57;;;;;;;1.40;0.60;;;;;;;9.15;100.00;97044.28;5093965;28;20330;-74
2023/12/11 07:03:24;;;;;;;1.43;0.50;;;;;;;9.17;100.00;97047.50;5094304;28;20210;-74
2023/12/11 07:05:50;;;;;;;1.80;0.47;;;;;;;9.19;100.00;97037.47;5094309;28;20215;-74
2023/12/11 07:08:17;;;;;;;0.40;0.40;;;;;;;9.08;100.00;97032.97;5094559;28;20261;-74
2023/12/11 07:10:43;;;;;;;1.27;0.50;;;;;;;9.08;100.00;97028.50;5094138;28;20252;-74
2023/12/11 07:13:10;;;;;;;1.80;0.50;;;;;;;9.15;100.00;97028.38;5094024;28;20628;-75
2023/12/11 07:15:36;;;;;;;0.90;0.50;;;;;;;9.14;100.00;97021.47;5093241;28;20210;-75
2023/12/11 07:18:03;;;;;;;0.60;0.60;;;;;;;9.11;100.00;97016.63;5093479;28;20235;-75
2023/12/11 07:20:33;;;;;;;0.50;0.50;;;;;;;9.10;100.00;97013.16;5093484;28;20249;-75
2023/12/11 07:23:00;;;;;;;1.17;0.50;;;;;;;9.02;100.00;97008.25;5093646;28;20251;-75
2023/12/11 07:25:26;;;;;;;0.73;0.40;;;;;;;9.05;100.00;97005.09;5093886;28;20544;-75
2023/12/11 07:27:53;;;;;;;0.77;0.50;;;;;;;9.19;100.00;97013.59;5093795;28;20235;-75
2023/12/11 07:30:19;;;;;;;0.60;0.50;;;;;;;9.22;100.00;97008.63;5093261;28;20229;-75
2023/12/11 07:32:45;;;;;;;1.73;0.57;;;;;;;9.19;100.00;97016.25;5094568;28;20302;-75
2023/12/11 07:35:12;;;;;;;1.13;0.60;;;;;;;9.18;100.00;97014.63;5093103;28;20678;-74
2023/12/11 07:37:41;;;;;;;2.07;0.80;;;;;;;9.21;100.00;97006.22;5093043;28;20527;-75
2023/12/11 07:40:08;;;;;;;0.90;0.70;;;;;;;9.21;100.00;97006.22;5093058;28;20699;-75
2023/12/11 07:42:35;;;;;;;0.87;0.50;;;;;;;9.27;100.00;96982.22;5093383;28;20296;-75
2023/12/11 07:45:04;;;;;;;1.67;0.80;;;;;;;9.33;100.00;96985.78;5094032;28;20210;-75
2023/12/11 07:47:31;;;;;;;1.53;0.90;;;;;;;9.37;100.00;96978.94;5093343;28;20635;-75
2023/12/11 07:49:57;;;;;;;0.40;0.40;;;;;;;9.33;100.00;96978.59;5093307;28;20645;-75
2023/12/11 07:52:24;;;;;;;4.53;0.60;;;;;;;9.34;100.00;96977.59;5093451;28;20394;-75
2023/12/11 07:54:50;;;;;;;0.67;0.50;;;;;;;9.44;100.00;96976.94;5093521;28;20204;-75
2023/12/11 07:57:18;;;;;;;2.00;0.63;;;;;;;9.52;100.00;96984.53;5093121;28;20291;-75
2023/12/11 07:59:45;;;;;;;1.60;0.70;;;;;;;9.60;100.00;96984.16;5093214;28;20223;-75
2023/12/11 08:02:11;;;;;;;1.43;0.50;;;;;;;9.65;100.00;97000.94;5092812;28;20290;-75
2023/12/11 08:04:41;;;;;;;0.67;0.50;;;;;;;9.65;100.00;97005.47;5093337;28;20302;-75
2023/12/11 08:07:07;;;;;;;1.60;0.43;;;;;;;9.61;100.00;97012.28;5093392;28;20287;-75
2023/12/11 08:09:39;;;;;;;2.00;0.40;;;;;;;9.67;100.00;97024.59;5093145;28;20757;-74
2023/12/11 08:12:06;;;;;;;0.70;0.60;;;;;;;9.77;100.00;97038.84;5093237;28;20700;-74
2023/12/11 08:14:33;;;;;;;2.77;0.70;;;;;;;9.81;100.00;97026.72;5093222;28;20233;-74
2023/12/11 08:17:00;;;;;;;1.00;0.50;;;;;;;9.97;100.00;97038.41;5093159;28;20295;-74
2023/12/11 08:19:27;;;;;;;3.00;0.60;;;;;;;10.16;100.00;97040.66;5092988;28;20307;-74
2023/12/11 08:21:53;;;;;;;1.03;0.60;;;;;;;10.17;100.00;97046.75;5092869;28;20316;-74
2023/12/11 08:24:20;;;;;;;0.57;0.40;;;;;;;10.22;100.00;97049.47;5093173;28;20210;-74
2023/12/11 08:26:47;;;;;;;1.07;0.53;;;;;;;10.24;100.00;97044.75;5092682;28;20257;-74
2023/12/11 08:29:13;;;;;;;1.33;0.53;;;;;;;10.42;100.00;97033.88;5092652;28;20599;-74
2023/12/11 08:31:39;;;;;;;1.40;0.60;;;;;;;10.36;100.00;97035.66;5093009;28;20200;-74
2023/12/11 08:34:06;;;;;;;1.20;0.70;;;;;;;10.45;100.00;97033.41;5092628;28;20518;-74
2023/12/11 08:36:32;;;;;;;1.07;0.53;;;;;;;10.47;100.00;97026.81;5092999;28;20204;-74
2023/12/11 08:38:59;;;;;;;1.00;0.50;;;;;;;10.45;100.00;97012.16;5092702;28;20748;-74
2023/12/11 08:41:25;;;;;;;0.57;0.50;;;;;;;10.44;100.00;97019.31;5092985;28;20311;-74
2023/12/11 08:43:52;;;;;;;1.37;0.60;;;;;;;10.61;100.00;97017.44;5093097;28;20230;-74
2023/12/11 08:46:18;;;;;;;1.20;0.70;;;;;;;10.56;100.00;97012.06;5093035;28;20342;-74
2023/12/11 08:48:45;;;;;;;3.23;0.70;;;;;;;10.48;100.00;97022.28;5092413;28;20251;-74
2023/12/11 08:51:12;;;;;;;0.60;0.60;;;;;;;10.58;100.00;97028.56;5093055;28;20291;-75
2023/12/11 08:53:38;;;;;;;0.80;0.50;;;;;;;10.49;100.00;97021.22;5092735;28;20607;-74
2023/12/11 08:56:04;;;;;;;1.13;0.60;;;;;;;10.50;100.00;97015.66;5093162;28;20277;-74
2023/12/11 08:58:31;;;;;;;1.17;0.50;;;;;;;10.58;100.00;97019.75;5092985;28;20291;-74
2023/12/11 09:00:58;;;;;;;3.33;0.70;;;;;;;10.62;100.00;97029.69;5092729;28;20327;-74
2023/12/11 09:03:24;;;;;;;1.50;0.60;;;;;;;10.70;100.00;97049.72;5092279;28;20207;-74
2023/12/11 09:05:50;;;;;;;0.73;0.60;;;;;;;10.72;100.00;97050.25;5092990;28;20335;-74
2023/12/11 09:08:17;;;;;;;3.10;0.73;;;;;;;10.73;100.00;97027.97;5092529;28;20291;-74
2023/12/11 09:10:43;;;;;;;3.40;0.57;;;;;;;10.84;100.00;97030.53;5092711;28;20225;-74
2023/12/11 09:13:10;;;;;;;3.63;0.70;;;;;;;10.80;100.00;97037.38;5092997;28;20203;-75
2023/12/11 09:15:37;;;;;;;1.97;0.50;;;;;;;10.88;100.00;97041.47;5095497;28;20200;-75
2023/12/11 09:18:03;;;;;;;1.33;0.60;;;;;;;10.98;100.00;97038.94;5096905;28;20204;-75
2023/12/11 09:20:30;;;;;;;1.47;0.60;;;;;;;11.04;100.00;97040.63;5096633;28;20234;-75
2023/12/11 09:22:56;;;;;;;0.47;0.40;;;;;;;10.96;100.00;97025.88;5096414;28;20269;-75
2023/12/11 09:25:23;;;;;;;0.90;0.47;;;;;;;10.95;100.00;97037.59;5097016;28;20443;-75
2023/12/11 09:27:49;;;;;;;1.47;0.60;;;;;;;10.96;100.00;97057.00;5096290;28;20296;-75
2023/12/11 09:30:16;;;;;;;0.80;0.43;;;;;;;11.00;100.00;97061.59;5095856;28;20224;-75
2023/12/11 09:32:42;;;;;;;2.17;0.73;;;;;;;10.98;100.00;97061.03;5096046;28;20200;-75
2023/12/11 09:35:09;;;;;;;1.03;0.50;;;;;;;11.07;100.00;97061.41;5096309;28;20209;-75
2023/12/11 09:37:36;;;;;;;2.17;0.80;;;;;;;11.01;100.00;97070.38;5095511;28;20224;-75
2023/12/11 09:40:03;;;;;;;1.50;0.80;;;;;;;11.02;100.00;97062.16;5095966;28;20315;-75
2023/12/11 09:42:31;;;;;;;1.37;0.67;;;;;;;11.00;100.00;97061.59;5096187;28;20244;-75
2023/12/11 09:44:58;;;;;;;2.63;0.60;;;;;;;10.94;100.00;97054.59;5096092;28;20200;-75
2023/12/11 09:47:29;;;;;;;1.17;0.50;;;;;;;11.03;100.00;97049.66;5095909;28;20214;-75
2023/12/11 09:49:56;;;;;;;1.47;0.67;;;;;;;11.00;100.00;97050.16;5096173;28;20316;-75
2023/12/11 09:52:23;;;;;;;1.77;0.93;;;;;;;11.09;100.00;97051.34;5095919;28;20243;-75
2023/12/11 09:54:49;;;;;;;3.03;0.80;;;;;;;11.18;100.00;97047.22;5096061;28;20206;-75
2023/12/11 09:57:16;;;;;;;1.47;0.57;;;;;;;11.28;100.00;97056.09;5096003;28;20289;-75
2023/12/11 09:59:44;;;;;;;1.17;0.70;;;;;;;11.35;100.00;97047.94;5095556;28;20313;-75
2023/12/11 10:02:17;;;;;;;3.17;0.77;;;;;;;11.41;100.00;97023.00;5095491;28;20800;-76
2023/12/11 10:05:07;;;;;;;0.90;0.60;;;;;;;11.35;100.00;97031.19;5096065;28;20293;-76
2023/12/11 10:07:35;;;;;;;0.87;0.50;;;;;;;11.45;100.00;97053.41;5096825;28;20213;-74
2023/12/11 10:10:20;;;;;;;1.70;0.70;;;;;;;11.60;100.00;97053.59;5095959;28;20314;-74
2023/12/11 10:12:48;;;;;;;1.17;0.60;;;;;;;11.64;100.00;97061.88;5095687;28;20199;-74
2023/12/11 10:15:25;;;;;;;1.20;0.60;;;;;;;11.65;100.00;97048.31;5095727;28;20574;-74
2023/12/11 10:18:11;;;;;;;3.33;0.70;;;;;;;11.71;100.00;97028.69;5095457;28;20207;-74
2023/12/11 10:20:39;;;;;;;2.70;0.70;;;;;;;11.81;100.00;97042.13;5095493;28;20238;-76
2023/12/11 10:23:14;;;;;;;4.43;0.87;;;;;;;12.03;100.00;97044.72;5095309;28;20293;-76
2023/12/11 10:25:42;;;;;;;2.93;0.97;;;;;;;12.24;100.00;97033.16;5095224;28;20210;-75
2023/12/11 10:28:11;;;;;;;1.47;0.73;;;;;;;12.33;100.00;97039.66;5095007;28;20214;-75
2023/12/11 10:30:56;;;;;;;1.33;0.80;;;;;;;12.39;100.00;97050.09;5095029;28;20718;-75
2023/12/11 10:33:24;;;;;;;4.27;0.80;;;;;;;12.48;100.00;97047.78;5095371;28;20210;-74
2023/12/11 10:35:52;;;;;;;2.93;1.07;;;;;;;12.50;100.00;97046.47;5095067;28;20277;-74
2023/12/11 10:38:25;;;;;;;3.47;0.90;;;;;;;12.49;100.00;97036.88;5094993;28;20571;-76
2023/12/11 10:40:53;;;;;;;2.00;0.80;;;;;;;12.42;100.00;97030.94;5095106;28;20228;-74
2023/12/11 10:43:20;;;;;;;1.30;0.60;;;;;;;12.42;100.00;97022.94;5094633;28;20295;-74
2023/12/11 10:45:46;;;;;;;2.20;0.93;;;;;;;12.29;100.00;97018.03;5094956;28;20211;-74
2023/12/11 10:48:13;;;;;;;1.87;0.80;;;;;;;12.46;100.00;97018.72;5094550;28;20231;-74
2023/12/11 10:50:40;;;;;;;2.83;0.80;;;;;;;12.43;100.00;97023.75;5094843;28;20228;-74
2023/12/11 10:53:08;;;;;;;4.53;1.00;;;;;;;12.46;100.00;97024.03;5094338;28;20256;-74
2023/12/11 10:55:37;;;;;;;4.50;1.00;;;;;;;12.36;100.00;97029.31;5095053;28;20200;-74
2023/12/11 10:58:06;;;;;;;4.30;1.40;;;;;;;12.31;100.00;97031.13;5094620;28;20629;-74
2023/12/11 11:00:32;;;;;;;2.63;0.83;;;;;;;12.31;100.00;97047.09;5094857;28;20238;-74
2023/12/11 11:03:02;;;;;;;5.33;1.33;;;;;;;12.27;100.00;97036.16;5094516;28;20200;-74
2023/12/11 11:05:29;;;;;;;4.40;1.27;;;;;;;12.18;100.00;97021.69;5094792;28;20203;-74
2023/12/11 11:08:15;;;;;;;6.10;1.30;;;;;;;12.24;100.00;97028.66;5094674;28;20207;-74
2023/12/11 11:10:53;;;;;;;4.07;1.20;;;;;;;12.30;100.00;97035.63;5094477;28;20224;-75
2023/12/11 11:13:22;;;;;;;3.30;1.00;;;;;;;12.37;100.00;97046.06;5094490;28;20197;-74
2023/12/11 11:15:53;;;;;;;3.40;1.07;;;;;;;12.33;100.00;97053.78;5093966;28;20622;-74
2023/12/11 11:18:20;;;;;;;3.10;1.30;;;;;;;12.29;100.00;97051.91;5094563;28;20214;-74
2023/12/11 11:21:10;;;;;;;5.57;1.30;;;;;;;12.29;100.00;97044.69;5094063;28;20236;-74
2023/12/11 11:23:45;;;;;;;2.40;1.03;;;;;;;12.34;100.00;97039.41;5093775;28;20666;-74
2023/12/11 11:26:32;;;;;;;2.57;1.13;;;;;;;12.30;100.00;97030.28;5094541;28;20306;-74
2023/12/11 11:28:58;;;;;;;4.23;1.20;;;;;;;12.34;100.00;97039.41;5093985;28;20566;-74
2023/12/11 11:31:49;;;;;;;4.00;1.20;;;;;;;12.44;100.00;97038.69;5093711;28;20204;-74